createdAt,value
2017-10-06T00:01:12.234Z,4.90
2017-10-06T00:03:40.399Z,5.03
2017-10-06T00:06:08.602Z,4.43
2017-10-06T00:08:37.518Z,4.62
2017-10-06T00:11:05.731Z,4.85
2017-10-06T00:13:33.890Z,6.10
2017-10-06T00:16:02.061Z,4.65
2017-10-06T00:18:30.357Z,6.20
2017-10-06T00:20:58.533Z,5.30
2017-10-06T00:23:26.759Z,5.40
2017-10-06T00:25:54.918Z,4.87
2017-10-06T00:28:23.842Z,5.07
2017-10-06T00:30:52.060Z,5.82
2017-10-06T00:33:20.234Z,5.25
2017-10-06T00:35:48.562Z,4.95
2017-10-06T00:38:16.722Z,5.03
2017-10-06T00:40:44.878Z,4.55
2017-10-06T00:43:13.832Z,5.25
2017-10-06T00:45:41.994Z,5.05
2017-10-06T00:48:10.190Z,5.25
2017-10-06T00:50:38.355Z,4.28
2017-10-06T00:53:06.670Z,4.43
2017-10-06T00:55:35.620Z,3.92
2017-10-06T00:58:03.782Z,5.12
2017-10-06T01:00:31.978Z,4.22
2017-10-06T01:03:00.162Z,4.00
2017-10-06T01:05:28.394Z,4.22
2017-10-06T01:07:56.554Z,3.97
2017-10-06T01:10:24.717Z,3.80
2017-10-06T01:12:52.897Z,3.62
2017-10-06T01:15:21.063Z,3.47
2017-10-06T01:17:49.242Z,4.00
2017-10-06T01:20:17.416Z,4.00
2017-10-06T01:22:45.726Z,3.60
2017-10-06T01:25:13.889Z,3.70
2017-10-06T01:27:42.043Z,3.80
2017-10-06T01:30:10.227Z,3.60
2017-10-06T01:32:38.377Z,3.33
2017-10-06T01:35:06.569Z,3.15
2017-10-06T01:37:34.737Z,3.40
2017-10-06T01:40:02.893Z,3.75
2017-10-06T01:42:31.181Z,3.85
2017-10-06T01:44:59.334Z,3.22
2017-10-06T01:47:28.310Z,3.58
2017-10-06T01:49:56.469Z,3.67
2017-10-06T01:52:24.658Z,3.35
2017-10-06T01:54:52.816Z,3.60
2017-10-06T01:57:20.990Z,3.33
2017-10-06T01:59:49.170Z,3.70
2017-10-06T02:02:17.335Z,3.60
2017-10-06T02:04:45.613Z,2.97
2017-10-06T02:07:13.773Z,3.78
2017-10-06T02:09:41.963Z,3.50
2017-10-06T02:12:10.127Z,3.25
2017-10-06T02:14:38.282Z,4.03
2017-10-06T02:17:06.466Z,3.67
2017-10-06T02:19:34.613Z,3.80
2017-10-06T02:22:02.911Z,3.35
2017-10-06T02:24:31.068Z,3.20
2017-10-06T02:26:59.234Z,3.65
2017-10-06T02:29:27.412Z,3.00
2017-10-06T02:31:55.564Z,3.65
2017-10-06T02:34:24.502Z,3.00
2017-10-06T02:36:52.659Z,2.87
2017-10-06T02:39:20.994Z,3.87
2017-10-06T02:41:49.150Z,3.35
2017-10-06T02:44:17.299Z,3.50
2017-10-06T02:46:45.488Z,3.20
2017-10-06T02:49:13.638Z,3.60
2017-10-06T02:51:41.821Z,3.33
2017-10-06T02:54:09.981Z,3.35
2017-10-06T02:56:38.285Z,3.47
2017-10-06T02:59:06.440Z,3.50
2017-10-06T03:01:34.646Z,4.07
2017-10-06T03:04:02.806Z,3.55
2017-10-06T03:06:30.967Z,3.87
2017-10-06T03:08:59.169Z,4.05
2017-10-06T03:11:27.327Z,3.35
2017-10-06T03:13:55.483Z,3.50
2017-10-06T03:16:23.782Z,3.25
2017-10-06T03:18:51.966Z,3.95
2017-10-06T03:21:20.155Z,4.50
2017-10-06T03:23:49.081Z,3.80
2017-10-06T03:26:17.291Z,3.70
2017-10-06T03:28:45.445Z,4.10
2017-10-06T03:31:13.615Z,3.60
2017-10-06T03:33:41.894Z,3.37
2017-10-06T03:36:10.054Z,4.28
2017-10-06T03:38:38.263Z,4.25
2017-10-06T03:41:06.420Z,3.70
2017-10-06T03:43:34.580Z,3.17
2017-10-06T03:46:02.750Z,4.10
2017-10-06T03:48:30.935Z,5.62
2017-10-06T03:50:59.210Z,3.67
2017-10-06T03:53:27.373Z,4.47
2017-10-06T03:55:55.554Z,3.00
2017-10-06T03:58:23.750Z,3.70
2017-10-06T04:00:51.906Z,3.45
2017-10-06T04:03:20.201Z,3.67
2017-10-06T04:05:48.402Z,4.47
2017-10-06T04:08:16.561Z,5.10
2017-10-06T04:10:44.771Z,3.97
2017-10-06T04:13:13.694Z,3.30
2017-10-06T04:15:41.878Z,3.40
2017-10-06T04:18:10.029Z,3.70
2017-10-06T04:20:38.214Z,3.45
2017-10-06T04:23:06.372Z,3.50
2017-10-06T04:25:34.534Z,3.80
2017-10-06T04:28:02.846Z,3.83
2017-10-06T04:30:30.991Z,3.70
2017-10-06T04:32:59.178Z,3.33
2017-10-06T04:35:27.331Z,4.22
2017-10-06T04:37:55.510Z,4.28
2017-10-06T04:40:23.686Z,3.10
2017-10-06T04:42:51.842Z,3.75
2017-10-06T04:45:20.917Z,3.65
2017-10-06T04:47:49.089Z,3.80
2017-10-06T04:50:17.253Z,3.62
2017-10-06T04:52:45.438Z,3.65
2017-10-06T04:55:13.613Z,3.42
2017-10-06T04:57:41.910Z,3.47
2017-10-06T05:00:10.835Z,3.45
2017-10-06T05:02:39.047Z,3.58
2017-10-06T05:05:07.265Z,3.47
2017-10-06T05:07:35.418Z,3.97
2017-10-06T05:10:04.362Z,3.60
2017-10-06T05:12:32.527Z,4.00
2017-10-06T05:15:07.807Z,3.95
2017-10-06T05:17:36.059Z,3.87
2017-10-06T05:20:04.358Z,3.92
2017-10-06T05:22:32.518Z,3.87
2017-10-06T05:25:00.702Z,3.85
2017-10-06T05:27:28.891Z,3.92
2017-10-06T05:29:57.038Z,3.95
2017-10-06T05:32:25.212Z,3.80
2017-10-06T05:34:53.362Z,3.85
2017-10-06T05:37:29.514Z,4.20
2017-10-06T05:39:57.772Z,4.00
2017-10-06T05:42:25.958Z,4.40
2017-10-06T05:44:54.111Z,3.83
2017-10-06T05:47:23.041Z,4.00
2017-10-06T05:49:51.249Z,3.67
2017-10-06T05:52:19.393Z,4.05
2017-10-06T05:54:47.734Z,4.68
2017-10-06T05:57:15.890Z,3.67
2017-10-06T05:59:44.814Z,3.90
2017-10-06T06:02:13.017Z,3.80
2017-10-06T06:04:41.166Z,4.35
2017-10-06T06:07:09.345Z,4.03
2017-10-06T06:09:37.497Z,3.92
2017-10-06T06:12:05.787Z,3.55
2017-10-06T06:14:33.933Z,3.90
2017-10-06T06:17:02.890Z,4.05
2017-10-06T06:19:31.035Z,4.07
2017-10-06T06:21:59.206Z,4.10
2017-10-06T06:24:28.170Z,3.55
2017-10-06T06:26:57.082Z,4.45
2017-10-06T06:29:25.310Z,3.97
2017-10-06T06:31:53.478Z,3.35
2017-10-06T06:34:21.631Z,3.80
2017-10-06T06:36:49.814Z,4.10
2017-10-06T06:42:00.482Z,3.90
2017-10-06T06:44:28.633Z,3.80
2017-10-06T06:46:56.921Z,3.35
2017-10-06T06:49:25.071Z,4.12
2017-10-06T06:51:53.254Z,3.53
2017-10-06T06:54:21.404Z,3.50
2017-10-06T06:56:50.302Z,4.10
2017-10-06T06:59:19.232Z,3.50
2017-10-06T07:01:47.365Z,3.62
2017-10-06T07:04:15.665Z,3.35
2017-10-06T07:06:43.810Z,3.53
2017-10-06T07:09:11.940Z,3.92
2017-10-06T07:11:40.109Z,3.87
2017-10-06T07:14:08.250Z,4.68
2017-10-06T07:16:36.414Z,3.80
2017-10-06T07:19:04.587Z,4.22
2017-10-06T07:21:32.720Z,4.35
2017-10-06T07:24:00.860Z,3.72
2017-10-06T07:26:29.070Z,4.03
2017-10-06T07:28:57.209Z,4.20
2017-10-06T07:31:25.381Z,4.37
2017-10-06T07:33:53.512Z,5.05
2017-10-06T07:36:22.406Z,4.18
2017-10-06T07:38:51.442Z,3.60
2017-10-06T07:41:19.579Z,3.33
2017-10-06T07:43:47.746Z,3.90
2017-10-06T07:46:16.636Z,3.45
2017-10-06T07:48:45.580Z,3.65
2017-10-06T07:51:13.722Z,3.58
2017-10-06T07:53:41.883Z,3.60
2017-10-06T07:56:10.840Z,3.75
2017-10-06T07:58:38.984Z,4.35
2017-10-06T08:01:07.131Z,3.03
2017-10-06T08:03:35.301Z,3.45
2017-10-06T08:06:03.465Z,3.97
2017-10-06T08:08:31.756Z,3.67
2017-10-06T08:10:59.952Z,3.35
2017-10-06T08:13:28.089Z,3.85
2017-10-06T08:15:56.248Z,3.60
2017-10-06T08:18:24.380Z,3.03
2017-10-06T08:20:52.546Z,2.20
2017-10-06T08:23:20.697Z,2.37
2017-10-06T08:25:48.840Z,1.92
2017-10-06T08:28:17.917Z,2.45
2017-10-06T08:30:46.049Z,1.80
2017-10-06T08:33:14.241Z,1.70
2017-10-06T08:35:42.378Z,1.85
2017-10-06T08:38:10.540Z,1.60
2017-10-06T08:40:38.695Z,1.60
2017-10-06T08:43:06.904Z,2.12
2017-10-06T08:45:35.056Z,1.77
2017-10-06T08:48:03.208Z,1.67
2017-10-06T08:50:31.354Z,1.80
2017-10-06T08:52:59.509Z,1.77
2017-10-06T08:55:27.729Z,1.65
2017-10-06T08:57:55.856Z,1.70
2017-10-06T09:00:24.142Z,1.80
2017-10-06T09:02:52.278Z,1.80
2017-10-06T09:05:20.425Z,1.80
2017-10-06T09:07:48.591Z,1.23
2017-10-06T09:10:16.750Z,2.00
2017-10-06T09:12:44.926Z,1.70
2017-10-06T09:15:13.065Z,1.75
2017-10-06T09:17:42.917Z,1.45
2017-10-06T09:20:11.180Z,1.80
2017-10-06T09:22:39.301Z,1.80
2017-10-06T09:25:07.460Z,2.05
2017-10-06T09:27:36.369Z,1.90
2017-10-06T09:30:04.545Z,1.60
2017-10-06T09:32:32.670Z,2.17
2017-10-06T09:35:00.817Z,1.83
2017-10-06T09:37:36.044Z,1.90
2017-10-06T09:40:04.277Z,1.90
2017-10-06T09:42:32.444Z,1.85
2017-10-06T09:45:00.599Z,1.60
2017-10-06T09:47:28.775Z,1.65
2017-10-06T09:49:56.953Z,1.67
2017-10-06T09:52:25.100Z,1.92
2017-10-06T09:54:53.401Z,1.75
2017-10-06T09:57:21.526Z,1.90
2017-10-06T09:59:49.713Z,2.03
2017-10-06T10:02:17.849Z,1.50
2017-10-06T10:04:46.770Z,1.80
2017-10-06T10:07:14.904Z,2.25
2017-10-06T10:09:43.177Z,1.70
2017-10-06T10:12:11.339Z,1.90
2017-10-06T10:14:39.490Z,2.05
2017-10-06T10:17:07.653Z,1.80
2017-10-06T10:19:35.785Z,1.90
2017-10-06T10:22:04.724Z,1.60
2017-10-06T10:24:33.624Z,2.05
2017-10-06T10:27:01.930Z,2.28
2017-10-06T10:29:30.069Z,2.15
2017-10-06T10:31:58.194Z,2.28
2017-10-06T10:34:27.117Z,1.98
2017-10-06T10:36:55.254Z,2.00
2017-10-06T10:39:24.192Z,2.10
2017-10-06T10:41:52.321Z,2.40
2017-10-06T10:44:21.377Z,1.80
2017-10-06T10:46:49.509Z,2.30
2017-10-06T10:49:17.649Z,2.62
2017-10-06T10:51:45.822Z,2.17
2017-10-06T10:54:13.974Z,2.80
2017-10-06T10:56:42.133Z,2.30
2017-10-06T10:59:10.280Z,1.92
2017-10-06T11:01:38.458Z,2.25
2017-10-06T11:04:06.597Z,2.95
2017-10-06T11:06:34.759Z,2.37
2017-10-06T11:09:02.884Z,2.40
2017-10-06T11:11:31.861Z,2.65
2017-10-06T11:14:00.021Z,2.40
2017-10-06T11:16:28.918Z,2.62
2017-10-06T11:18:57.200Z,2.30
2017-10-06T11:21:25.328Z,2.50
2017-10-06T11:23:53.508Z,2.58
2017-10-06T11:26:21.637Z,2.50
2017-10-06T11:28:49.827Z,2.95
2017-10-06T11:31:17.963Z,2.90
2017-10-06T11:33:46.098Z,2.70
2017-10-06T11:36:14.302Z,2.80
2017-10-06T11:38:43.199Z,3.37
2017-10-06T11:41:11.370Z,3.55
2017-10-06T11:43:40.265Z,3.40
2017-10-06T11:46:08.417Z,3.65
2017-10-06T11:48:37.319Z,3.58
2017-10-06T11:51:06.293Z,2.80
2017-10-06T11:53:34.446Z,3.60
2017-10-06T11:56:02.597Z,3.67
2017-10-06T11:58:30.822Z,3.17
2017-10-06T12:00:58.937Z,4.07
2017-10-06T12:03:27.075Z,3.90
2017-10-06T12:05:55.238Z,4.43
2017-10-06T12:08:24.154Z,4.37
2017-10-06T12:10:52.441Z,3.75
2017-10-06T12:13:20.625Z,4.03
2017-10-06T12:15:48.763Z,4.07
2017-10-06T12:18:17.672Z,4.68
2017-10-06T12:20:45.833Z,4.87
2017-10-06T12:23:14.121Z,3.75
2017-10-06T12:25:42.316Z,4.60
2017-10-06T12:28:10.463Z,4.70
2017-10-06T12:30:38.590Z,5.10
2017-10-06T12:33:06.751Z,5.60
2017-10-06T12:35:34.906Z,6.22
2017-10-06T12:38:05.547Z,4.40
2017-10-06T12:43:22.167Z,3.75
2017-10-06T12:45:51.670Z,4.10
2017-10-06T12:48:20.964Z,4.60
2017-10-06T12:50:49.140Z,3.85
2017-10-06T12:53:17.803Z,4.57
2017-10-06T12:55:48.025Z,4.62
2017-10-06T12:58:23.133Z,4.53
2017-10-06T13:00:51.324Z,5.62
2017-10-06T13:03:26.845Z,5.00
2017-10-06T13:05:55.940Z,4.20
2017-10-06T13:08:24.072Z,5.00
2017-10-06T13:10:52.238Z,5.40
2017-10-06T13:13:20.403Z,4.43
2017-10-06T13:15:48.729Z,4.82
2017-10-06T13:18:16.860Z,4.70
2017-10-06T13:20:45.016Z,5.20
2017-10-06T13:23:13.950Z,4.75
2017-10-06T13:25:42.087Z,7.05
2017-10-06T13:28:10.253Z,3.78
2017-10-06T13:30:38.394Z,4.30
2017-10-06T13:33:06.545Z,3.78
2017-10-06T13:35:34.810Z,4.47
2017-10-06T13:38:02.995Z,4.18
2017-10-06T13:40:31.145Z,4.10
2017-10-06T13:42:59.293Z,4.50
2017-10-06T13:45:27.438Z,4.45
2017-10-06T13:47:55.710Z,4.00
2017-10-06T13:50:23.850Z,3.87
2017-10-06T13:52:52.037Z,4.57
2017-10-06T13:55:20.178Z,4.93
2017-10-06T13:57:48.334Z,4.40
2017-10-06T14:00:16.488Z,4.70
2017-10-06T14:02:44.795Z,4.32
2017-10-06T14:05:12.932Z,4.65
2017-10-06T14:07:41.084Z,5.10
2017-10-06T14:10:09.285Z,4.30
2017-10-06T14:12:38.204Z,4.95
2017-10-06T14:15:07.097Z,4.80
2017-10-06T14:17:35.280Z,4.90
2017-10-06T14:20:03.422Z,4.78
2017-10-06T14:22:32.461Z,4.85
2017-10-06T14:25:00.606Z,5.25
2017-10-06T14:27:28.812Z,5.25
2017-10-06T14:29:59.296Z,5.55
2017-10-06T14:32:28.641Z,5.70
2017-10-06T14:34:56.771Z,4.93
2017-10-06T14:37:25.701Z,5.55
2017-10-06T14:39:53.874Z,6.50
2017-10-06T14:42:22.004Z,5.47
2017-10-06T14:44:51.067Z,5.30
2017-10-06T14:47:19.220Z,5.68
2017-10-06T14:49:47.434Z,5.68
2017-10-06T14:52:15.566Z,6.05
2017-10-06T14:54:43.722Z,5.75
2017-10-06T14:57:12.005Z,6.80
2017-10-06T14:59:40.145Z,5.18
2017-10-06T15:02:09.069Z,5.30
2017-10-06T15:04:37.217Z,5.40
2017-10-06T15:07:05.414Z,6.05
2017-10-06T15:09:33.576Z,5.15
2017-10-06T15:12:02.477Z,5.25
2017-10-06T15:14:30.773Z,5.65
2017-10-06T15:16:58.905Z,5.97
2017-10-06T15:19:27.190Z,4.93
2017-10-06T15:21:56.098Z,4.72
2017-10-06T15:24:24.238Z,5.53
2017-10-06T15:26:53.189Z,4.95
2017-10-06T15:29:21.487Z,5.22
2017-10-06T15:31:49.644Z,5.72
2017-10-06T15:34:17.781Z,4.70
2017-10-06T15:36:46.071Z,4.47
2017-10-06T15:39:14.230Z,4.72
2017-10-06T15:41:42.414Z,4.75
2017-10-06T15:44:10.545Z,4.68
2017-10-06T15:46:38.680Z,4.30
2017-10-06T15:49:06.855Z,4.28
2017-10-06T15:51:35.012Z,4.82
2017-10-06T15:54:03.341Z,4.82
2017-10-06T15:56:32.281Z,4.40
2017-10-06T15:59:01.208Z,5.10
2017-10-06T16:01:29.367Z,3.97
2017-10-06T16:03:57.502Z,4.90
2017-10-06T16:06:25.718Z,4.75
2017-10-06T16:08:53.859Z,5.10
2017-10-06T16:11:22.054Z,5.50
2017-10-06T16:13:50.186Z,4.90
2017-10-06T16:16:19.292Z,4.78
2017-10-06T16:18:47.428Z,5.28
2017-10-06T16:21:16.357Z,4.90
2017-10-06T16:23:44.678Z,4.25
2017-10-06T16:26:12.806Z,5.45
2017-10-06T16:28:40.990Z,5.00
2017-10-06T16:31:09.125Z,5.28
2017-10-06T16:33:38.045Z,4.78
2017-10-06T16:36:06.203Z,4.95
2017-10-06T16:38:35.136Z,5.40
2017-10-06T16:41:03.291Z,5.05
2017-10-06T16:43:31.459Z,4.70
2017-10-06T16:46:00.513Z,6.07
2017-10-06T16:48:28.646Z,5.95
2017-10-06T16:50:56.821Z,4.57
2017-10-06T16:53:24.953Z,5.75
2017-10-06T16:55:53.179Z,5.00
2017-10-06T16:58:21.319Z,5.55
2017-10-06T17:00:49.471Z,5.10
2017-10-06T17:03:18.445Z,5.25
2017-10-06T17:05:46.604Z,5.12
2017-10-06T17:08:14.772Z,5.35
2017-10-06T17:10:42.913Z,4.75
2017-10-06T17:13:11.095Z,5.10
2017-10-06T17:15:39.227Z,5.65
2017-10-06T17:18:08.274Z,5.00
2017-10-06T17:20:36.435Z,6.20
2017-10-06T17:23:04.599Z,5.78
2017-10-06T17:25:32.776Z,5.07
2017-10-06T17:28:00.939Z,5.30
2017-10-06T17:30:29.134Z,5.43
2017-10-06T17:32:57.279Z,5.37
2017-10-06T17:35:25.565Z,5.68
2017-10-06T17:37:53.707Z,5.30
2017-10-06T17:40:22.631Z,5.10
2017-10-06T17:42:50.781Z,5.40
2017-10-06T17:45:19.278Z,5.55
2017-10-06T17:47:47.425Z,5.25
2017-10-06T17:50:15.559Z,6.90
2017-10-06T17:52:43.717Z,6.78
2017-10-06T17:55:11.898Z,5.70
2017-10-06T17:57:40.113Z,5.55
2017-10-06T18:00:08.235Z,8.00
2017-10-06T18:02:36.402Z,4.97
2017-10-06T18:05:04.690Z,6.00
2017-10-06T18:07:32.844Z,4.82
2017-10-06T18:10:01.038Z,4.12
2017-10-06T18:12:29.190Z,5.57
2017-10-06T18:14:57.374Z,5.60
2017-10-06T18:17:25.530Z,12.15
2017-10-06T18:19:54.622Z,6.20
2017-10-06T18:22:22.777Z,4.35
2017-10-06T18:24:50.937Z,4.47
2017-10-06T18:27:19.095Z,4.57
2017-10-06T18:29:47.261Z,4.72
2017-10-06T18:32:15.431Z,5.00
2017-10-06T18:34:43.575Z,4.75
2017-10-06T18:37:11.851Z,4.53
2017-10-06T18:39:39.994Z,3.70
2017-10-06T18:42:08.904Z,4.07
2017-10-06T18:44:37.080Z,4.50
2017-10-06T18:47:05.239Z,3.95
2017-10-06T18:49:34.179Z,3.80
2017-10-06T18:52:02.331Z,4.95
2017-10-06T18:54:30.495Z,4.10
2017-10-06T18:56:58.698Z,4.07
2017-10-06T18:59:26.880Z,4.00
2017-10-06T19:01:55.062Z,3.87
2017-10-06T19:04:23.239Z,4.25
2017-10-06T19:06:51.418Z,3.45
2017-10-06T19:09:19.570Z,4.15
2017-10-06T19:11:47.726Z,4.45
2017-10-06T19:14:15.920Z,4.07
2017-10-06T19:16:44.068Z,3.53
2017-10-06T19:19:12.266Z,4.03
2017-10-06T19:21:40.427Z,3.72
2017-10-06T19:24:08.633Z,3.33
2017-10-06T19:26:36.805Z,4.20
2017-10-06T19:29:04.959Z,4.50
2017-10-06T19:31:33.151Z,3.75
2017-10-06T19:34:01.294Z,3.70
2017-10-06T19:36:29.550Z,4.07
2017-10-06T19:38:57.682Z,3.75
2017-10-06T19:41:25.858Z,3.62
2017-10-06T19:43:54.036Z,3.80
2017-10-06T19:46:22.334Z,3.65
2017-10-06T19:48:51.330Z,4.05
2017-10-06T19:51:20.260Z,3.22
2017-10-06T19:53:48.415Z,3.37
2017-10-06T19:56:16.633Z,4.20
2017-10-06T19:58:44.822Z,3.35
2017-10-06T20:01:12.991Z,3.20
2017-10-06T20:03:41.203Z,3.50
2017-10-06T20:06:10.137Z,3.78
2017-10-06T20:08:38.354Z,3.42
2017-10-06T20:11:06.575Z,3.50
2017-10-06T20:13:34.719Z,4.30
2017-10-06T20:16:02.888Z,3.45
2017-10-06T20:18:31.021Z,3.47
2017-10-06T20:20:59.315Z,3.35
2017-10-06T20:23:28.228Z,3.33
2017-10-06T20:25:56.423Z,3.30
2017-10-06T20:28:24.549Z,3.05
2017-10-06T20:30:53.510Z,2.80
2017-10-06T20:33:21.654Z,3.28
2017-10-06T20:35:49.826Z,3.05
2017-10-06T20:38:18.112Z,3.12
2017-10-06T20:40:46.255Z,2.70
2017-10-06T20:43:14.421Z,3.30
2017-10-06T20:45:43.330Z,2.72
2017-10-06T20:48:11.505Z,2.92
2017-10-06T20:50:39.658Z,2.33
2017-10-06T20:53:08.589Z,3.00
2017-10-06T20:55:37.667Z,2.42
2017-10-06T20:58:05.836Z,2.42
2017-10-06T21:00:33.982Z,2.50
2017-10-06T21:03:02.145Z,2.55
2017-10-06T21:05:30.293Z,2.80
2017-10-06T21:07:58.578Z,2.40
2017-10-06T21:10:26.720Z,2.85
2017-10-06T21:12:54.937Z,2.97
2017-10-06T21:15:23.077Z,2.75
2017-10-06T21:17:51.239Z,2.85
2017-10-06T21:20:19.405Z,2.70
2017-10-06T21:22:47.553Z,3.17
2017-10-06T21:25:16.495Z,2.90
2017-10-06T21:27:44.661Z,2.62
2017-10-06T21:30:13.007Z,2.60
2017-10-06T21:32:41.181Z,2.87
2017-10-06T21:35:10.094Z,2.60
2017-10-06T21:37:38.265Z,2.55
2017-10-06T21:40:06.389Z,2.30
2017-10-06T21:42:35.463Z,3.37
2017-10-06T21:45:03.628Z,2.42
2017-10-06T21:47:31.825Z,2.50
2017-10-06T21:49:59.978Z,2.53
2017-10-06T21:52:28.138Z,2.90
2017-10-06T21:54:56.333Z,2.70
2017-10-06T21:57:24.480Z,2.58
2017-10-06T21:59:53.522Z,2.40
2017-10-06T22:02:21.717Z,2.03
2017-10-06T22:04:49.857Z,2.78
2017-10-06T22:07:18.029Z,2.50
2017-10-06T22:09:46.177Z,3.40
2017-10-06T22:12:14.353Z,2.45
2017-10-06T22:14:42.497Z,2.58
2017-10-06T22:17:10.819Z,2.83
2017-10-06T22:19:38.941Z,2.70
2017-10-06T22:22:07.095Z,2.55
2017-10-06T22:24:35.270Z,2.90
2017-10-06T22:27:04.201Z,2.75
2017-10-06T22:29:32.362Z,2.83
2017-10-06T22:32:00.507Z,2.65
2017-10-06T22:34:29.570Z,2.50
2017-10-06T22:36:57.710Z,2.50
2017-10-06T22:39:25.866Z,3.00
2017-10-06T22:41:54.007Z,2.70
2017-10-06T22:44:22.143Z,2.80
2017-10-06T22:46:50.300Z,2.83
2017-10-06T22:49:18.442Z,3.42
2017-10-06T22:51:47.491Z,2.80
2017-10-06T22:54:15.651Z,2.45
2017-10-06T22:56:43.805Z,2.40
2017-10-06T22:59:11.969Z,3.10
2017-10-06T23:01:40.133Z,3.03
2017-10-06T23:04:08.260Z,3.30
2017-10-06T23:06:43.905Z,2.55
2017-10-06T23:09:12.141Z,2.50
2017-10-06T23:11:40.341Z,4.22
2017-10-06T23:14:08.536Z,2.72
2017-10-06T23:16:36.649Z,3.20
2017-10-06T23:19:05.593Z,2.92
2017-10-06T23:21:33.732Z,2.85
2017-10-06T23:24:01.864Z,2.97
2017-10-06T23:26:30.030Z,2.85
2017-10-06T23:28:58.312Z,2.75
2017-10-06T23:31:26.480Z,2.87
2017-10-06T23:33:54.616Z,2.80
2017-10-06T23:36:22.820Z,3.10
2017-10-06T23:38:50.937Z,2.92
2017-10-06T23:41:19.845Z,2.67
2017-10-06T23:43:48.006Z,3.20
2017-10-06T23:46:16.294Z,2.92
2017-10-06T23:48:44.440Z,3.37
2017-10-06T23:51:12.597Z,3.40
2017-10-06T23:53:40.730Z,2.90
2017-10-06T23:56:08.919Z,3.40
2017-10-06T23:58:37.068Z,3.53
